Gresham, SC (29546)

10:28 PM EDT on April 26, 2015 (GMT -0400)
Radio Baha'i, WLGI | | Change Station
CLOSE
Current Station
Personal Weather Station
Location: Hemingway, SC
Elevation: 55 ft
Nearby Weather Stations
Active Advisory: Flood Warning

Elev 55 ft 33.72 °N, 79.33 °W | Updated 11 seconds ago

Rain
Rain
55.0 °F
Feels Like 55.0 °F
N
0.0
Wind Variable Wind from SE
Gusts 0.0 mph

Today
High -- | Low -- °F
--% Chance of Precip.
Yesterday
High -- | Low -- °F
Precip. -- in
6:33 AM 7:56 PM
First Quarter, 60% visible
Pressure 29.77 in
Visibility 7.0 miles
Clouds Overcast 1700 ft
Dew Point 54 °F
Humidity 97%
Rainfall 0.20 in
Snow Depth Not available.
UV 0.0 out of 12
Pollen 8.80 out of 12
Air Quality Not available.
Flu Activity Local Activity
METAR KHYW 270215Z AUTO 01006KT 7SM OVC017 12/12 A2977 RMK AO2

More Conditions Fewer Conditions

Pressure 29.77 in
Visibility 7.0 miles
Clouds Overcast 1700 ft
Dew Point 54 °F
Humidity 97%
Rainfall 0.20 in
Snow Depth Not available.
UV 0.0 out of 12
Pollen 8.80 out of 12
Air Quality Not available.
Flu Activity Local Activity
METAR KHYW 270215Z AUTO 01006KT 7SM OVC017 12/12 A2977 RMK AO2

More Conditions Fewer Conditions

The full scope of the disaster following a powerful 7.8-magnitude earthquake in Nepal may not come into view for days, but global charities are already sending emergency aid. Click to see how you can help.

10-Day Weather Forecast

Almanac

Astronomy

Apr. 26, 2015 Rise Set
Actual Time
Civil Twilight
Nautical Twilight
Astronomical Twilight
Moon
Length of Visible Light
Length of Day
Tomorrow will be .
, % of the Moon is Illuminated

Today's Extremes

State Highs State Lows

Community

WunderPhotos

Upload Photos

1,817,204 photos uploaded!

WunderBlogs® & News

Nearby

Air Quality

  Air Quality AQ Index Pollutant
Not available.

Snow Depth

Station Depth Elevation

Earthquake Activity

City Distance Mag. Time & Date
Minimum magnitude displayed is 2.5.

Coastal Water Temperatures

Place Temperature

Stations

Nearby Weather Stations

Station Location Temp. Windchill Dew Point Humidity Wind Precip. Elev Updated Type
                   
Flood Warning
Statement as of 8:31 PM EDT on April 26, 2015

... Flood Warning now in effect until late Thursday night...
the Flood Warning continues for
the great Pee Dee at Pee Dee
* until late Thursday night.
* At 8:00 PM Sunday the stage was 21.3 feet.
* Flood stage is 19.0 feet.
* Minor flooding is occurring and minor flooding is forecast.
* He river will continue to fall to below flood stage by Thursday
afternoon.
* At 20.0 feet... flood waters will affect swamplands and logging
interests. Flood waters will affect Timberland as far downstream as Yauhannah
two weeks after the crest passes Pee Dee. Logging equipment needs to be moved.


Lat... Lon 3424 7962 3424 7950 3400 7945 3385 7932
          3385 7944 3398 7957